Zanesville Municipal Airport
KZZV : now visible

Airfield :











YOU CAN JOIN US ON...

 
LOGIN :

Register | Disclaimer

   EN    FR    IT 

 









Legend :    VFR   Marginal VFR   IFR   Intensive IFR   Very Intensive IFR
Visi :
Ceiling :
>= 8 km
>= 3000ft
5 to 8 km
1000 to 3000 ft
1500m to 5 km
500 to 1000 ft
800 to 1500m
200 to 500 ft
< 800m
< 200 ft
Symbols :   Thunderstorms  Fog  Heavy snow  Heavy precipitations  Wind > 20 kt






- Airport Elevation : 900 ft


KZZV - Zanesville Municipal

CURRENT METAR :
  • 251553Z AUTO 24008KT 10SM BKN009 OVC041 04/02 A2993 RMK AO2 RAB19E28 CIG 007V012 SLP138 P0000 T00390022

EXPIRED METARs :
  • 251532Z AUTO 25006KT 10SM BKN010 BKN043 OVC065 04/02 A2993 RMK AO2 RAB19E28 P0000 T00390022
  • 251513Z AUTO 24008KT 10SM BKN010 BKN013 OVC044 03/02 A2993 RMK AO2 CIG 007V011 T00330017
  • 251453Z AUTO 23005KT 10SM BKN009 BKN013 OVC043 03/02 A2992 RMK AO2 RAB08E19 CIG 008V011 SLP136 P0000 60001 T00330017 51017
  • 251439Z AUTO 23004KT 10SM BKN009 BKN017 OVC038 03/02 A2992 RMK AO2 RAB08E19 P0000 T00330017
  • 251433Z AUTO 24005KT 10SM SCT011 BKN017 OVC038 03/02 A2992 RMK AO2 RAB08E19 P0000 T00330017
  • 251408Z AUTO 24005KT 9SM -RA SCT009 OVC039 03/02 A2992 RMK AO2 RAB08 P0000 T00330017
  • 251353Z AUTO 25006KT 10SM BKN009 OVC037 03/02 A2991 RMK AO2 RAE1258 CIG 006V012 SLP134 P0000 T00330017
  • 251330Z AUTO 23005KT 5SM BR BKN009 BKN013 OVC026 03/02 A2991 RMK AO2 RAE1258 CIG 006V011 P0000 T00330022

TAF KZZV
Valid from the 25 at 14:00 until the 26 at 12:00 UTC


251351Z 2514/2612 23005KT 5SM BR VCSH OVC009
FM251700 24006KT P6SM OVC015
FM260000 22005KT 6SM -SHRASN OVC015
FM260500 24007KT P6SM VCSH OVC006



MET'MAP, your aeronautical weather chart ! - Copyright ORBIFLY December 2007 - Disclaimer

ORBIFLY MET'MAP TEAM :

Programming & Development : Alexandra Zaïnal
Concept & original design : Baudouin d'Aumeries
Assistance for programming : Marc-Olivier Méhu
Technical & hardware support : Manuel Goepfert

Contact : metmap@orbifly.com




SOURCES & CREDITS :

   NOAA       Earth
Advisory